Main page
METAR-TAF:

METAR-TAF

Airports :

RAF Northolt

Northolt, England

latitude: 51-33N, longitude: 000-25W, elevation: 38 m

Current weather observation

The report was made 29 minutes ago, at 20:50 UTC
Wind 9 kt from the East
Temperature 15°C
Humidity 72%
Pressure 1020 hPa
Visibility 10 km or more
no clouds below 1500 m and no cumulonimbus

METAR: EGWU 202050Z 10009KT CAVOK 15/10 Q1020 NOSIG

Time: 22:19 (21:19 UTC)

Forecast

The report was made 1 hour and 49 minutes ago, at 19:30 UTC
Forecast valid from 20 at 21 UTC to 21 at 15 UTC
Wind 6 kt from the East
Visibility 10 km or more
Few clouds at a height of 4000 ft
Becoming
from 20 at 23 UTC to 21 at 02 UTC
Visibility: 6000 m
mist
Probability 30% :
Temporary
from 21 at 02 UTC to 21 at 07 UTC
Visibility: 4000 m
Broken clouds at a height of 400 ft
Becoming
from 21 at 06 UTC to 21 at 09 UTC
Visibility 10 km or more

TAF: EGWU 201930Z 2021/2115 08006KT 9999 FEW040 BECMG 2023/2102 6000 BR PROB30 TEMPO 2102/2107 4000 BKN004 BECMG 2106/2109 9999 NSW

Weather observations and forecasts of more than 4000 airports (METAR and TAF reports).

The available stations are represented by yellow and red dots on the map.

Hover mouse over dot to see the name of the station.

Then click to see weather observations and forecasts.

To change the map : click on the green buttons with a black cross to zoom in, on the green button with a dash to zoom out, or on the green arrows for adjacent maps.


METAR-TAF: